Time;durP1;ratioP1;P1;durP2;ratioP2;P2;SDS_P1;SDS_P2;PMS_P1;PMS_P2;Temp;Humidity;BMP_temperature;BMP_pressure;BME280_temperature;BME280_humidity;BME280_pressure;Samples;Min_cycle;Max_cycle;Signal;HPM_P1;HPM_P2
2022/05/20 00:02:06;;;;;;;11.95;9.40;;;11.60;99.90;;;;;;5063027;28;20062;-50
2022/05/20 00:04:31;;;;;;;11.20;9.38;;;11.60;99.90;;;;;;5053676;28;20048;-55
2022/05/20 00:06:57;;;;;;;11.90;9.95;;;11.60;99.90;;;;;;5064002;28;20361;-52
2022/05/20 00:09:23;;;;;;;11.85;10.55;;;11.60;99.90;;;;;;5055594;28;20474;-53
2022/05/20 00:11:49;;;;;;;12.63;9.07;;;11.60;99.90;;;;;;5081065;28;20156;-53
2022/05/20 00:14:14;;;;;;;12.65;11.38;;;11.60;99.90;;;;;;5081929;28;20052;-48
2022/05/20 00:16:41;;;;;;;13.20;11.23;;;11.50;99.90;;;;;;5081949;28;20054;-56
2022/05/20 00:19:09;;;;;;;12.73;11.18;;;11.40;99.90;;;;;;5082834;28;20059;-48
2022/05/20 00:21:35;;;;;;;13.63;10.15;;;11.50;99.90;;;;;;5081546;28;20380;-49
2022/05/20 00:24:02;;;;;;;10.20;9.30;;;11.40;99.90;;;;;;5081936;28;20051;-52
2022/05/20 00:26:28;;;;;;;11.18;10.02;;;11.40;99.90;;;;;;5084155;28;20121;-44
2022/05/20 00:28:54;;;;;;;11.73;9.70;;;11.50;99.90;;;;;;5079301;28;20362;-50
2022/05/20 00:31:24;;;;;;;8.95;7.10;;;11.50;99.90;;;;;;5057098;28;20063;-49
2022/05/20 00:33:51;;;;;;;9.85;6.05;;;11.50;99.90;;;;;;5064881;28;20169;-50
2022/05/20 00:36:17;;;;;;;5.90;5.40;;;11.50;99.90;;;;;;5076253;28;20056;-50
2022/05/20 00:38:43;;;;;;;6.15;5.45;;;11.50;99.90;;;;;;5065802;28;20122;-47
2022/05/20 00:41:09;;;;;;;6.93;5.78;;;11.50;99.90;;;;;;5062460;28;20052;-55
2022/05/20 00:43:39;;;;;;;7.32;6.10;;;11.50;99.90;;;;;;5062587;28;20170;-46
2022/05/20 00:46:08;;;;;;;7.30;6.20;;;11.50;99.90;;;;;;5081296;28;20506;-54
2022/05/20 00:48:34;;;;;;;9.65;8.25;;;11.50;99.90;;;;;;5059242;28;20154;-51
2022/05/20 00:51:31;;;;;;;10.88;9.75;;;11.50;99.90;;;;;;5080936;28;20237;-55
2022/05/20 00:54:15;;;;;;;12.25;10.23;;;11.60;99.90;;;;;;5044499;28;20052;-49
2022/05/20 00:56:48;;;;;;;12.88;10.88;;;11.60;99.90;;;;;;5067343;28;20482;-51
2022/05/20 00:59:18;;;;;;;12.98;10.20;;;11.70;99.90;;;;;;5061648;28;20051;-53
2022/05/20 01:01:47;;;;;;;11.52;10.43;;;11.80;99.90;;;;;;5080999;28;20097;-50
2022/05/20 01:04:17;;;;;;;11.10;9.45;;;11.90;99.90;;;;;;5080202;28;20402;-54
2022/05/20 01:06:43;;;;;;;11.90;9.35;;;11.90;99.90;;;;;;5070538;28;20080;-50
2022/05/20 01:09:09;;;;;;;8.20;7.47;;;12.00;99.90;;;;;;5065836;28;20157;-52
2022/05/20 01:11:37;;;;;;;9.45;8.57;;;12.00;99.90;;;;;;5080929;28;20091;-50
2022/05/20 01:14:04;;;;;;;12.38;11.27;;;12.00;99.90;;;;;;5079914;28;20113;-51
2022/05/20 01:16:32;;;;;;;12.85;10.77;;;12.10;99.90;;;;;;5080675;28;20067;-51
2022/05/20 01:18:59;;;;;;;12.82;11.05;;;12.10;99.90;;;;;;5080930;28;20052;-47
2022/05/20 01:21:26;;;;;;;13.45;10.85;;;12.10;99.90;;;;;;5080560;28;20056;-50
2022/05/20 01:23:59;;;;;;;13.93;11.68;;;12.20;99.90;;;;;;5080754;28;20043;-47
2022/05/20 01:26:25;;;;;;;11.88;10.75;;;12.20;99.90;;;;;;5064348;28;20052;-54
2022/05/20 01:28:50;;;;;;;18.55;13.13;;;12.10;99.90;;;;;;5070607;28;20051;-52
2022/05/20 01:31:17;;;;;;;12.95;11.45;;;12.10;99.90;;;;;;5069094;28;20051;-53
2022/05/20 01:33:52;;;;;;;15.57;12.10;;;12.10;99.90;;;;;;5064902;28;20048;-51
2022/05/20 01:36:24;;;;;;;14.38;13.05;;;12.10;99.90;;;;;;5079609;28;20073;-50
2022/05/20 01:38:52;;;;;;;17.80;15.95;;;12.10;99.90;;;;;;5054334;28;20052;-52
2022/05/20 01:41:59;;;;;;;16.77;15.20;;;12.10;99.90;;;;;;5036859;28;20044;-50
2022/05/20 01:44:43;;;;;;;17.13;15.30;;;12.10;99.90;;;;;;4998135;28;20049;-50
2022/05/20 01:47:13;;;;;;;19.33;16.23;;;12.10;99.90;;;;;;5018004;28;20049;-50
2022/05/20 01:49:57;;;;;;;18.85;16.25;;;12.00;99.90;;;;;;5004371;28;20058;-55
2022/05/20 01:52:40;;;;;;;20.45;16.60;;;11.90;99.90;;;;;;5012389;28;20037;-52
2022/05/20 01:55:18;;;;;;;18.02;16.23;;;11.90;99.90;;;;;;4995493;28;20100;-54
2022/05/20 01:58:00;;;;;;;18.45;16.65;;;11.80;99.90;;;;;;5008010;28;20401;-53
2022/05/20 02:00:28;;;;;;;18.35;16.45;;;11.70;99.90;;;;;;5013667;28;20085;-49
2022/05/20 02:03:04;;;;;;;17.73;15.70;;;11.70;99.90;;;;;;5022710;28;20204;-49
2022/05/20 02:05:51;;;;;;;18.50;15.73;;;11.60;99.90;;;;;;5024351;28;20061;-52
2022/05/20 02:08:26;;;;;;;22.90;18.80;;;11.50;99.90;;;;;;5016170;28;20376;-55
2022/05/20 02:11:04;;;;;;;18.50;16.60;;;11.50;99.90;;;;;;5021272;28;20475;-50
2022/05/20 02:13:34;;;;;;;17.95;16.15;;;11.40;99.90;;;;;;5006384;28;20053;-51
2022/05/20 02:16:12;;;;;;;19.30;17.40;;;11.40;99.90;;;;;;5044756;28;20064;-49
2022/05/20 02:18:49;;;;;;;19.15;17.35;;;11.40;99.90;;;;;;5083677;28;20040;-50
2022/05/20 02:21:20;;;;;;;19.50;17.55;;;11.40;99.90;;;;;;5083975;28;20046;-52
2022/05/20 02:23:50;;;;;;;18.67;16.88;;;11.40;99.90;;;;;;5064665;28;20359;-48
2022/05/20 02:26:21;;;;;;;15.20;13.70;;;11.40;99.90;;;;;;5056448;28;20048;-46
2022/05/20 02:28:53;;;;;;;13.10;12.00;;;11.40;99.90;;;;;;5082847;28;20044;-51
2022/05/20 02:31:24;;;;;;;14.35;13.05;;;11.40;99.90;;;;;;5081124;28;20051;-53
2022/05/20 02:33:51;;;;;;;12.95;11.85;;;11.40;99.90;;;;;;5065909;28;20060;-45
2022/05/20 02:36:32;;;;;;;14.25;12.90;;;11.40;99.90;;;;;;5075359;28;20106;-52
2022/05/20 02:38:58;;;;;;;15.18;13.73;;;11.30;99.90;;;;;;5074361;28;20418;-49
2022/05/20 02:41:25;;;;;;;15.75;14.32;;;11.40;99.90;;;;;;5082497;28;20074;-48
2022/05/20 02:43:51;;;;;;;15.80;14.27;;;11.30;99.90;;;;;;5084009;28;20595;-48
2022/05/20 02:46:17;;;;;;;12.55;11.48;;;11.40;99.90;;;;;;5067874;28;20055;-49
2022/05/20 02:48:42;;;;;;;11.45;10.55;;;11.40;99.90;;;;;;5085037;28;20797;-50
2022/05/20 02:51:08;;;;;;;14.23;12.85;;;11.40;99.90;;;;;;5066815;28;20055;-54
2022/05/20 02:53:34;;;;;;;14.30;13.07;;;11.30;99.90;;;;;;5088775;28;20055;-52
2022/05/20 02:56:00;;;;;;;15.50;13.68;;;11.30;99.90;;;;;;5085775;28;20054;-52
2022/05/20 03:04:10;;;;;;;70.50;15.32;;;11.20;99.90;;;;;;5083988;28;20113;-50
2022/05/20 03:06:41;;;;;;;106.47;15.75;;;11.10;99.90;;;;;;5066526;28;20600;-52
2022/05/20 03:09:08;;;;;;;48.08;14.48;;;11.10;99.90;;;;;;5083797;28;20044;-51
2022/05/20 03:11:34;;;;;;;84.82;14.65;;;11.00;99.90;;;;;;5082718;28;20093;-57
2022/05/20 03:14:04;;;;;;;121.57;16.38;;;10.90;99.90;;;;;;5064873;28;20059;-49
2022/05/20 03:16:33;;;;;;;90.28;14.73;;;10.80;99.90;;;;;;5082838;28;20090;-51
2022/05/20 03:18:59;;;;;;;38.65;13.57;;;10.80;99.90;;;;;;5081728;28;20040;-52
2022/05/20 03:21:25;;;;;;;37.95;14.10;;;10.70;99.90;;;;;;5064499;28;20414;-49
2022/05/20 03:23:51;;;;;;;40.67;15.10;;;10.70;99.90;;;;;;5083156;28;20048;-53
2022/05/20 03:26:18;;;;;;;31.13;14.80;;;10.60;99.90;;;;;;5076486;28;20550;-55
2022/05/20 03:28:45;;;;;;;33.65;14.95;;;10.70;99.90;;;;;;5063985;28;20059;-54
2022/05/20 03:31:12;;;;;;;37.47;15.57;;;10.60;99.90;;;;;;5047685;28;20127;-53
2022/05/20 03:33:40;;;;;;;20.38;15.02;;;10.60;99.90;;;;;;5081498;28;20056;-51
2022/05/20 03:36:06;;;;;;;64.72;17.55;;;10.60;99.90;;;;;;5060217;28;20159;-52
2022/05/20 03:38:34;;;;;;;91.55;16.90;;;10.60;99.90;;;;;;5048237;28;20144;-52
2022/05/20 03:40:59;;;;;;;36.03;15.82;;;10.60;99.90;;;;;;5075505;28;20805;-52
2022/05/20 03:43:26;;;;;;;35.17;14.52;;;10.50;99.90;;;;;;5080275;28;20461;-52
2022/05/20 03:45:53;;;;;;;29.65;15.25;;;10.50;99.90;;;;;;5054796;28;20502;-52
2022/05/20 03:48:20;;;;;;;67.40;16.20;;;10.50;99.90;;;;;;5083481;28;20383;-49
2022/05/20 03:50:46;;;;;;;32.85;14.38;;;10.50;99.90;;;;;;5054630;28;20052;-52
2022/05/20 03:53:11;;;;;;;14.30;13.10;;;10.50;99.90;;;;;;5056717;28;20395;-54
2022/05/20 03:55:37;;;;;;;16.63;13.15;;;10.50;99.90;;;;;;5066113;28;20078;-48
2022/05/20 03:58:03;;;;;;;13.40;12.05;;;10.60;99.90;;;;;;5068466;28;20077;-46
2022/05/20 04:00:30;;;;;;;18.63;12.50;;;10.60;99.90;;;;;;5082728;28;20406;-55
2022/05/20 04:02:56;;;;;;;18.55;14.10;;;10.60;99.90;;;;;;5083358;28;20048;-49
2022/05/20 04:05:22;;;;;;;15.75;14.32;;;10.60;99.90;;;;;;5069333;28;20769;-52
2022/05/20 04:07:48;;;;;;;14.63;13.52;;;10.70;99.90;;;;;;5085528;28;20110;-53
2022/05/20 04:10:14;;;;;;;14.10;13.00;;;10.70;99.90;;;;;;5067516;28;20674;-57
2022/05/20 04:12:42;;;;;;;19.33;13.82;;;10.70;99.90;;;;;;5081825;28;20059;-52
2022/05/20 04:15:11;;;;;;;14.13;12.70;;;10.80;99.90;;;;;;5065042;28;20127;-51
2022/05/20 04:17:37;;;;;;;14.90;13.70;;;10.70;99.90;;;;;;5063141;28;20099;-44
2022/05/20 04:20:05;;;;;;;15.88;14.38;;;10.80;99.90;;;;;;5082300;28;20048;-49
2022/05/20 04:22:33;;;;;;;15.15;13.98;;;10.70;99.90;;;;;;5065483;28;20055;-52
2022/05/20 04:24:59;;;;;;;12.93;12.02;;;10.80;99.90;;;;;;5080422;28;20055;-52
2022/05/20 04:27:31;;;;;;;12.13;11.32;;;10.80;99.90;;;;;;5064724;28;20048;-51
2022/05/20 04:29:57;;;;;;;13.23;12.23;;;11.00;99.90;;;;;;5071652;28;20051;-52
2022/05/20 04:32:23;;;;;;;11.52;10.73;;;11.30;99.90;;;;;;5081410;28;20044;-50
2022/05/20 04:34:49;;;;;;;11.05;10.25;;;12.10;99.90;;;;;;5079234;28;21334;-54
2022/05/20 04:37:15;;;;;;;10.50;9.60;;;13.10;99.90;;;;;;5055058;28;20054;-53
2022/05/20 04:39:41;;;;;;;7.95;7.35;;;14.00;99.90;;;;;;5082694;28;20162;-55
2022/05/20 04:47:41;;;;;;;6.78;6.10;;;16.00;99.90;;;;;;5080512;28;20043;-50
2022/05/20 04:50:08;;;;;;;5.93;5.53;;;16.80;99.90;;;;;;5080961;28;20059;-46
2022/05/20 04:52:34;;;;;;;6.50;5.97;;;17.20;99.90;;;;;;5080925;28;20062;-50
2022/05/20 04:55:01;;;;;;;8.40;7.70;;;17.60;99.90;;;;;;5081429;28;20048;-52
2022/05/20 04:57:39;;;;;;;6.75;6.25;;;18.20;99.90;;;;;;5079383;28;20043;-53
2022/05/20 05:00:12;;;;;;;7.10;6.50;;;18.70;99.90;;;;;;5071217;28;20144;-51
2022/05/20 05:02:38;;;;;;;8.13;7.40;;;19.20;99.90;;;;;;5065029;28;20052;-52
2022/05/20 05:05:06;;;;;;;8.80;8.10;;;19.60;99.90;;;;;;5065831;28;20161;-54
2022/05/20 05:07:35;;;;;;;9.38;8.48;;;19.90;99.90;;;;;;5067745;28;20391;-53
2022/05/20 05:10:01;;;;;;;8.55;7.75;;;20.20;99.90;;;;;;5066297;28;20044;-50
2022/05/20 05:12:27;;;;;;;8.35;7.65;;;20.70;99.90;;;;;;5080676;28;20040;-51
2022/05/20 05:14:53;;;;;;;9.18;8.25;;;21.10;99.90;;;;;;5081980;28;20129;-52
2022/05/20 05:20:09;;;;;;;10.40;9.52;;;21.60;99.90;;;;;;5084594;28;20060;-50
2022/05/20 05:22:34;;;;;;;8.55;7.75;;;21.80;99.90;;;;;;5067027;28;20063;-53
2022/05/20 05:25:00;;;;;;;9.48;8.52;;;21.90;99.90;;;;;;5081540;28;20055;-50
2022/05/20 05:27:27;;;;;;;10.90;9.90;;;22.30;99.90;;;;;;5080588;28;20073;-52
2022/05/20 05:29:52;;;;;;;9.70;8.95;;;22.60;99.90;;;;;;5055624;28;20501;-51
2022/05/20 05:32:18;;;;;;;11.35;10.45;;;22.80;99.90;;;;;;5080666;28;20131;-53
2022/05/20 05:34:44;;;;;;;10.40;9.40;;;22.90;99.90;;;;;;5060236;28;20533;-53
2022/05/20 05:37:10;;;;;;;11.45;10.35;;;23.10;99.90;;;;;;5047004;28;20076;-55
2022/05/20 05:39:37;;;;;;;10.75;9.85;;;23.30;99.90;;;;;;5073720;28;20044;-54
2022/05/20 05:42:03;;;;;;;11.60;10.48;;;23.70;99.90;;;;;;5079891;28;20055;-53
2022/05/20 05:44:29;;;;;;;10.27;9.48;;;24.00;99.90;;;;;;5062888;28;20097;-55
2022/05/20 05:46:58;;;;;;;11.88;10.77;;;24.30;99.90;;;;;;5056090;28;20455;-51
2022/05/20 05:49:23;;;;;;;12.82;11.48;;;24.40;99.50;;;;;;5061931;28;20405;-52
2022/05/20 05:51:49;;;;;;;13.18;12.13;;;24.40;99.80;;;;;;5062473;28;20055;-51
2022/05/20 05:54:16;;;;;;;13.27;12.07;;;24.50;99.40;;;;;;5079664;28;20715;-54
2022/05/20 05:56:42;;;;;;;12.70;11.52;;;24.40;99.70;;;;;;5070108;28;20134;-52
2022/05/20 05:59:09;;;;;;;12.48;11.30;;;24.80;99.10;;;;;;5078810;28;20043;-51
2022/05/20 06:01:35;;;;;;;13.68;12.35;;;25.30;99.50;;;;;;5076549;28;20469;-53
2022/05/20 06:04:01;;;;;;;14.40;12.73;;;25.10;98.50;;;;;;5077475;28;20108;-53
2022/05/20 06:06:26;;;;;;;13.82;12.40;;;24.40;98.80;;;;;;5056223;28;20365;-53
2022/05/20 06:08:52;;;;;;;15.02;11.50;;;23.40;99.30;;;;;;5084592;28;20468;-53
2022/05/20 06:11:19;;;;;;;15.82;12.55;;;22.50;99.90;;;;;;5079096;28;20506;-52
2022/05/20 06:13:45;;;;;;;14.77;11.38;;;21.60;99.90;;;;;;5080074;28;20124;-51
2022/05/20 06:16:18;;;;;;;15.77;13.77;;;21.30;99.90;;;;;;5079944;28;20423;-51
2022/05/20 06:18:43;;;;;;;14.20;11.82;;;20.80;99.90;;;;;;5080038;28;20048;-54
2022/05/20 06:21:09;;;;;;;14.52;12.35;;;20.50;99.90;;;;;;5064053;28;20040;-51
2022/05/20 06:23:35;;;;;;;14.85;11.02;;;20.20;99.90;;;;;;5051121;28;20061;-51
2022/05/20 06:26:01;;;;;;;13.02;9.98;;;20.40;99.90;;;;;;5060446;28;20386;-52
2022/05/20 06:28:26;;;;;;;13.55;10.80;;;21.40;99.90;;;;;;5060152;28;20152;-52
2022/05/20 06:30:52;;;;;;;11.75;10.30;;;22.50;99.90;;;;;;5044868;28;20056;-52
2022/05/20 06:33:21;;;;;;;12.00;10.60;;;23.00;99.90;;;;;;5062569;28;20075;-52
2022/05/20 06:41:35;;;;;;;12.93;10.02;;;24.80;99.50;;;;;;5020559;28;20112;-56
2022/05/20 06:44:02;;;;;;;11.63;9.68;;;25.60;98.70;;;;;;5022103;28;20053;-53
2022/05/20 06:46:28;;;;;;;15.43;9.68;;;25.60;98.10;;;;;;5023555;28;20092;-51
2022/05/20 06:48:55;;;;;;;10.95;9.40;;;24.70;98.20;;;;;;5004492;28;20175;-54
2022/05/20 06:51:27;;;;;;;14.60;10.32;;;24.20;98.40;;;;;;5006791;28;20650;-54
2022/05/20 06:53:55;;;;;;;13.90;9.25;;;23.50;98.90;;;;;;5022997;28;20563;-52
2022/05/20 06:56:22;;;;;;;8.73;7.38;;;23.20;98.70;;;;;;5006271;28;20148;-51
2022/05/20 06:58:48;;;;;;;13.20;8.35;;;23.40;99.10;;;;;;5020409;28;20134;-53
2022/05/20 07:01:17;;;;;;;9.43;7.40;;;24.00;99.90;;;;;;5020364;28;20591;-53
2022/05/20 07:03:43;;;;;;;14.65;9.20;;;24.70;98.80;;;;;;5019289;28;20057;-55
2022/05/20 07:06:11;;;;;;;11.50;7.95;;;25.10;97.90;;;;;;5020127;28;20045;-54
2022/05/20 07:08:38;;;;;;;9.35;6.97;;;25.40;97.50;;;;;;5023113;28;20503;-49
2022/05/20 07:11:05;;;;;;;9.65;7.15;;;25.40;96.50;;;;;;5082091;28;20044;-54
2022/05/20 07:13:32;;;;;;;12.10;8.00;;;25.10;96.90;;;;;;5063585;28;20611;-51
2022/05/20 07:15:58;;;;;;;13.05;7.50;;;24.80;97.20;;;;;;5079733;28;20040;-49
2022/05/20 07:18:28;;;;;;;12.70;7.45;;;24.40;98.00;;;;;;5072343;28;20554;-53
2022/05/20 07:20:54;;;;;;;9.13;7.40;;;24.10;98.00;;;;;;5076767;28;20075;-52
2022/05/20 07:23:24;;;;;;;11.07;7.75;;;24.00;98.30;;;;;;5076508;28;20052;-51
2022/05/20 07:25:51;;;;;;;11.65;6.53;;;23.70;98.60;;;;;;5059530;28;20391;-48
2022/05/20 07:28:17;;;;;;;13.40;6.65;;;23.30;98.30;;;;;;5056601;28;20048;-52
2022/05/20 07:30:43;;;;;;;10.18;6.25;;;22.80;98.60;;;;;;5077559;28;20050;-50
2022/05/20 07:33:08;;;;;;;10.77;6.18;;;22.70;98.50;;;;;;5082817;28;20040;-51
2022/05/20 07:35:36;;;;;;;9.38;5.10;;;22.70;98.50;;;;;;5079745;28;20056;-52
2022/05/20 07:38:02;;;;;;;11.00;5.40;;;22.70;98.00;;;;;;5053296;28;20131;-50
2022/05/20 07:40:34;;;;;;;10.48;6.80;;;22.50;97.90;;;;;;5082626;28;20048;-48
2022/05/20 07:42:59;;;;;;;11.40;7.43;;;22.10;99.40;;;;;;5072548;28;20413;-50
2022/05/20 07:45:25;;;;;;;9.27;6.32;;;21.90;99.60;;;;;;5083220;28;20040;-53
2022/05/20 07:47:51;;;;;;;9.68;6.95;;;21.70;99.00;;;;;;5082861;28;20059;-48
2022/05/20 07:50:17;;;;;;;9.50;5.13;;;21.60;99.30;;;;;;5082523;28;20044;-54
2022/05/20 07:55:34;;;;;;;8.90;6.13;;;20.80;99.40;;;;;;5083620;28;20052;-48
2022/05/20 07:58:07;;;;;;;10.80;6.15;;;20.80;99.90;;;;;;5086292;28;20052;-51
2022/05/20 08:00:33;;;;;;;9.07;6.75;;;20.90;99.90;;;;;;5081783;28;20764;-52
2022/05/20 08:03:01;;;;;;;11.25;7.18;;;21.10;99.90;;;;;;5070608;28;20056;-50
2022/05/20 08:05:29;;;;;;;9.88;6.90;;;21.10;99.90;;;;;;5082610;28;20566;-51
2022/05/20 08:08:01;;;;;;;11.52;6.32;;;21.30;99.90;;;;;;5082681;28;20443;-54
2022/05/20 08:10:29;;;;;;;11.50;5.65;;;21.40;99.90;;;;;;5080378;28;20043;-45
2022/05/20 08:12:56;;;;;;;9.70;6.13;;;21.30;99.90;;;;;;5082096;28;20050;-46
2022/05/20 08:15:24;;;;;;;10.38;7.03;;;21.30;99.90;;;;;;5081540;28;20076;-50
2022/05/20 08:17:50;;;;;;;9.82;6.97;;;21.10;99.90;;;;;;5082030;28;20115;-53
2022/05/20 08:20:23;;;;;;;13.27;6.03;;;21.20;99.90;;;;;;5066708;28;20551;-49
2022/05/20 08:22:49;;;;;;;11.20;6.03;;;21.40;99.70;;;;;;5081404;28;20521;-52
2022/05/20 08:25:16;;;;;;;10.68;5.72;;;21.50;99.90;;;;;;5069439;28;20533;-54
2022/05/20 08:27:42;;;;;;;10.05;5.50;;;21.70;99.50;;;;;;5080699;28;20043;-49
2022/05/20 08:30:17;;;;;;;11.32;6.35;;;21.70;99.70;;;;;;5067356;28;20596;-48
2022/05/20 08:32:43;;;;;;;10.57;5.43;;;21.50;99.90;;;;;;5081380;28;20048;-50
2022/05/20 08:35:10;;;;;;;7.70;5.53;;;21.10;99.20;;;;;;5060609;28;20480;-52
2022/05/20 08:37:41;;;;;;;9.13;5.50;;;21.00;99.10;;;;;;5075539;28;20410;-49
2022/05/20 08:40:20;;;;;;;11.18;5.18;;;21.10;99.90;;;;;;5081050;28;20098;-47
2022/05/20 08:42:47;;;;;;;7.80;5.90;;;21.10;99.90;;;;;;5062435;28;20398;-52
2022/05/20 08:45:15;;;;;;;11.10;5.57;;;21.20;98.90;;;;;;5061300;28;20853;-51
2022/05/20 08:47:51;;;;;;;8.02;5.30;;;21.20;99.00;;;;;;5062738;28;20051;-51
2022/05/20 08:50:30;;;;;;;10.13;5.03;;;20.90;99.70;;;;;;5059305;28;20056;-45
2022/05/20 08:52:57;;;;;;;8.77;5.00;;;20.90;99.30;;;;;;5079785;28;20113;-51
2022/05/20 08:55:24;;;;;;;8.40;4.90;;;20.80;99.90;;;;;;5073808;28;20059;-54
2022/05/20 08:57:57;;;;;;;8.48;4.88;;;20.80;98.70;;;;;;5053793;28;20151;-52
2022/05/20 09:00:23;;;;;;;7.65;4.28;;;20.90;98.10;;;;;;5068708;28;20456;-51
2022/05/20 09:02:49;;;;;;;9.30;5.38;;;21.00;99.10;;;;;;5069024;28;20059;-49
2022/05/20 09:05:24;;;;;;;10.52;5.40;;;21.10;99.90;;;;;;5072101;28;20036;-52
2022/05/20 09:08:03;;;;;;;9.15;6.18;;;21.20;98.80;;;;;;5079413;28;20123;-52
2022/05/20 09:11:11;;;;;;;8.95;6.40;;;21.20;99.90;;;;;;5081377;28;20429;-53
2022/05/20 09:16:31;;;;;;;10.20;6.03;;;21.20;98.20;;;;;;4990811;28;20045;-50
2022/05/20 09:19:13;;;;;;;13.82;6.68;;;21.00;99.90;;;;;;4998972;28;20863;-50
2022/05/20 09:21:43;;;;;;;11.73;6.90;;;21.00;99.60;;;;;;4980516;28;20448;-51
2022/05/20 09:24:22;;;;;;;8.82;7.50;;;21.10;99.90;;;;;;4979586;28;20049;-52
2022/05/20 09:27:22;;;;;;;8.73;7.45;;;20.90;99.90;;;;;;4987165;28;20396;-49
2022/05/20 09:29:56;;;;;;;9.75;8.23;;;20.80;99.80;;;;;;4931231;28;20607;-51
2022/05/20 09:32:34;;;;;;;9.30;7.43;;;20.90;99.90;;;;;;4937657;29;20055;-52
2022/05/20 09:35:20;;;;;;;13.05;8.82;;;20.90;99.60;;;;;;4945869;28;20122;-53
2022/05/20 09:37:48;;;;;;;10.65;8.50;;;20.80;99.90;;;;;;4953161;28;20139;-53
2022/05/20 09:40:36;;;;;;;11.48;8.48;;;20.70;99.60;;;;;;4939845;28;20145;-50
2022/05/20 09:43:22;;;;;;;10.27;8.40;;;20.50;99.90;;;;;;4944235;28;20054;-54
2022/05/20 09:45:49;;;;;;;9.57;7.35;;;20.40;99.90;;;;;;4952354;28;20141;-52
2022/05/20 09:48:37;;;;;;;7.95;7.15;;;20.40;99.60;;;;;;4959423;28;20570;-51
2022/05/20 09:51:10;;;;;;;10.95;8.32;;;20.40;99.60;;;;;;4966361;28;20704;-53
2022/05/20 09:53:40;;;;;;;10.73;8.73;;;20.20;99.90;;;;;;4980648;28;20066;-53
2022/05/20 09:56:21;;;;;;;10.07;7.35;;;20.10;99.90;;;;;;4992253;28;20058;-51
2022/05/20 09:59:11;;;;;;;9.43;8.25;;;20.10;99.90;;;;;;4981890;28;20670;-52
2022/05/20 10:01:38;;;;;;;8.73;7.40;;;20.10;99.70;;;;;;4980715;28;20476;-52
2022/05/20 10:04:09;;;;;;;10.35;7.00;;;20.00;99.80;;;;;;4964159;28;20192;-51
2022/05/20 10:06:48;;;;;;;8.55;6.80;;;20.10;99.80;;;;;;5073503;28;20462;-49
2022/05/20 10:09:39;;;;;;;10.30;7.43;;;20.20;99.40;;;;;;5061347;28;20052;-49
2022/05/20 10:12:17;;;;;;;9.15;7.30;;;20.10;99.10;;;;;;5075736;28;20044;-50
2022/05/20 10:14:56;;;;;;;8.27;7.28;;;20.10;99.90;;;;;;5061314;28;20044;-52
2022/05/20 10:17:46;;;;;;;7.88;6.97;;;20.10;99.80;;;;;;5063359;28;20543;-51
2022/05/20 10:20:41;;;;;;;9.30;7.40;;;20.20;99.40;;;;;;5082890;28;20044;-49
2022/05/20 10:23:20;;;;;;;10.45;7.85;;;20.20;99.90;;;;;;5084550;28;20052;-48
2022/05/20 10:25:55;;;;;;;9.18;7.65;;;20.30;99.90;;;;;;5079669;28;20048;-49
2022/05/20 10:34:39;;;;;;;8.38;6.70;;;20.40;99.20;;;;;;5084034;28;20059;-52
2022/05/20 10:37:30;;;;;;;7.10;6.18;;;20.40;98.30;;;;;;5076942;28;20086;-50
2022/05/20 10:40:08;;;;;;;11.93;7.35;;;20.50;97.90;;;;;;5065642;28;20116;-53
2022/05/20 10:42:55;;;;;;;9.23;6.97;;;20.40;97.60;;;;;;5084522;28;20054;-50
2022/05/20 10:48:47;;;;;;;9.38;8.57;;;20.60;98.50;;;;;;5063687;28;20468;-53
2022/05/20 10:51:30;;;;;;;10.63;8.63;;;20.70;99.90;;;;;;5074063;28;20127;-54
2022/05/20 10:54:41;;;;;;;11.63;9.90;;;20.70;99.90;;;;;;5069604;28;20055;-52
2022/05/20 10:57:40;;;;;;;10.57;9.13;;;20.70;99.90;;;;;;5057548;28;20082;-52
2022/05/20 11:00:12;;;;;;;11.57;10.40;;;20.70;99.90;;;;;;5082047;28;20392;-55
2022/05/20 11:03:03;;;;;;;9.77;8.60;;;20.80;99.90;;;;;;5082973;28;20498;-48
2022/05/20 11:05:47;;;;;;;10.32;8.65;;;20.90;99.90;;;;;;5081061;28;20052;-54
2022/05/20 11:08:34;;;;;;;10.68;8.20;;;21.00;99.60;;;;;;5070558;28;20048;-50
2022/05/20 11:11:34;;;;;;;10.25;7.25;;;21.20;98.90;;;;;;5081142;28;20052;-53
2022/05/20 11:14:12;;;;;;;8.32;6.85;;;21.30;96.30;;;;;;4976915;28;20586;-52
2022/05/20 11:17:01;;;;;;;9.52;7.03;;;21.50;97.40;;;;;;4964107;28;20509;-50
2022/05/20 11:19:46;;;;;;;8.00;6.78;;;21.60;96.20;;;;;;4974758;28;20058;-51
2022/05/20 11:22:44;;;;;;;7.95;6.63;;;21.60;95.50;;;;;;4957926;28;20068;-53
2022/05/20 11:25:31;;;;;;;10.88;6.68;;;21.50;96.90;;;;;;4961437;28;20509;-52
2022/05/20 11:28:05;;;;;;;10.88;6.82;;;21.50;96.40;;;;;;4978057;28;20058;-51
2022/05/20 11:30:44;;;;;;;7.50;6.60;;;21.50;96.00;;;;;;4978185;28;20205;-52
2022/05/20 11:33:17;;;;;;;9.65;8.10;;;21.50;94.90;;;;;;4962791;28;20054;-53
2022/05/20 11:36:03;;;;;;;10.43;6.75;;;21.50;95.90;;;;;;4980616;28;20053;-54
2022/05/20 11:38:41;;;;;;;7.88;6.22;;;21.50;94.90;;;;;;4978289;28;20129;-50
2022/05/20 11:41:25;;;;;;;8.30;6.03;;;21.50;95.60;;;;;;4979646;28;20101;-50
2022/05/20 11:44:25;;;;;;;6.28;4.25;;;21.50;94.40;;;;;;4980358;28;20093;-50
2022/05/20 11:47:15;;;;;;;7.00;5.28;;;21.20;92.70;;;;;;4963532;28;20518;-50
2022/05/20 11:50:11;;;;;;;7.03;4.90;;;21.10;93.50;;;;;;5030810;28;20541;-49
2022/05/20 11:52:55;;;;;;;6.88;5.05;;;20.90;93.70;;;;;;5047908;28;20473;-54
2022/05/20 11:55:21;;;;;;;8.25;4.88;;;20.70;94.00;;;;;;5082258;28;20440;-52
2022/05/20 11:58:11;;;;;;;9.05;5.25;;;20.70;93.90;;;;;;5082157;28;20438;-50
2022/05/20 12:00:40;;;;;;;9.20;5.05;;;20.70;94.30;;;;;;5080614;28;20149;-54
2022/05/20 12:03:11;;;;;;;9.90;6.30;;;20.90;94.90;;;;;;5053705;28;20478;-50
2022/05/20 12:05:40;;;;;;;6.18;5.18;;;20.90;94.90;;;;;;5083367;28;20596;-49
2022/05/20 12:08:07;;;;;;;9.68;6.22;;;21.00;95.00;;;;;;5083754;28;20056;-53
2022/05/20 12:10:46;;;;;;;8.32;6.13;;;21.10;95.30;;;;;;5080688;28;20060;-47
2022/05/20 12:13:20;;;;;;;8.50;5.57;;;21.00;95.00;;;;;;5047337;28;20140;-55
2022/05/20 12:15:49;;;;;;;6.72;5.68;;;21.00;95.10;;;;;;5081507;28;20604;-53
2022/05/20 12:24:44;;;;;;;12.70;7.53;;;21.00;94.70;;;;;;5072801;28;20388;-50
2022/05/20 12:27:23;;;;;;;7.68;6.95;;;21.00;95.70;;;;;;4977883;28;20058;-52
2022/05/20 12:30:02;;;;;;;11.75;7.93;;;20.90;94.70;;;;;;4959333;28;20539;-53
2022/05/20 12:32:41;;;;;;;9.77;8.70;;;20.80;95.60;;;;;;4970205;28;20477;-47
2022/05/20 12:35:07;;;;;;;11.10;8.57;;;20.80;95.40;;;;;;4977829;28;20134;-48
2022/05/20 12:37:41;;;;;;;10.32;8.73;;;20.80;96.00;;;;;;4980765;28;20058;-54
2022/05/20 12:40:28;;;;;;;7.15;6.43;;;20.80;94.80;;;;;;4973163;28;20054;-53
2022/05/20 12:42:58;;;;;;;8.55;7.63;;;20.80;93.80;;;;;;4979239;28;20580;-55
2022/05/20 12:45:26;;;;;;;11.52;8.45;;;20.90;94.20;;;;;;4962202;28;20488;-49
2022/05/20 12:47:56;;;;;;;9.10;8.05;;;21.00;94.40;;;;;;4975325;28;20047;-53
2022/05/20 12:50:27;;;;;;;9.27;7.57;;;21.00;93.60;;;;;;4976711;28;20074;-56
2022/05/20 12:52:59;;;;;;;8.30;7.60;;;20.90;93.10;;;;;;4977619;28;20054;-50
2022/05/20 12:55:56;;;;;;;10.20;7.60;;;20.70;93.40;;;;;;4962363;28;20046;-49
2022/05/20 12:58:28;;;;;;;8.50;7.70;;;20.60;93.50;;;;;;4898305;29;20135;-53
2022/05/20 13:00:57;;;;;;;11.70;8.45;;;20.40;93.50;;;;;;4916034;29;20060;-53
2022/05/20 13:03:40;;;;;;;9.05;8.15;;;20.20;93.90;;;;;;4930668;28;20595;-53
2022/05/20 13:06:22;;;;;;;10.70;8.35;;;20.00;94.50;;;;;;5011081;28;20049;-52
2022/05/20 13:09:02;;;;;;;9.32;8.43;;;19.80;94.80;;;;;;5011996;28;20479;-54
2022/05/20 13:11:40;;;;;;;10.48;8.60;;;19.60;94.90;;;;;;5015503;28;20045;-51
2022/05/20 13:14:12;;;;;;;9.82;8.82;;;19.50;95.80;;;;;;5015082;28;20053;-54
2022/05/20 13:16:39;;;;;;;12.48;9.30;;;19.40;95.50;;;;;;4999309;28;20420;-50
2022/05/20 13:19:12;;;;;;;12.35;8.93;;;19.40;95.60;;;;;;5013706;28;20050;-47
2022/05/20 13:21:43;;;;;;;12.20;9.77;;;19.30;95.80;;;;;;5017576;28;20105;-51
2022/05/20 13:24:18;;;;;;;12.30;10.05;;;19.30;96.00;;;;;;5016771;28;20056;-52
2022/05/20 13:26:44;;;;;;;11.27;10.23;;;19.20;96.50;;;;;;5015452;28;20053;-52
2022/05/20 13:29:18;;;;;;;10.27;9.30;;;19.20;96.80;;;;;;5014076;28;20069;-52
2022/05/20 13:31:44;;;;;;;11.57;10.45;;;19.10;99.90;;;;;;5016910;28;20050;-50
2022/05/20 13:34:10;;;;;;;15.63;13.27;;;19.00;99.90;;;;;;5015403;28;20149;-52
2022/05/20 13:36:45;;;;;;;13.13;11.93;;;18.90;99.90;;;;;;5051953;28;20133;-53
2022/05/20 13:39:17;;;;;;;16.88;14.10;;;18.80;99.90;;;;;;5062482;28;20067;-52
2022/05/20 13:41:44;;;;;;;16.25;13.57;;;18.70;99.90;;;;;;5079568;28;20445;-54